Scroll for more >

River gauges, storages, and weirs in the Murray–Darling Basin

Type Locationsort descending River Water level Flow Volume Release Water temp Salinity Rainfall
River Gauge Albury (Union Bridge) Murray 2.06 m 22/09/2018 22:00 Not measured Not measured Not measured 12.0°C 22/09/2018 22:00 40.5 μS/cm 22/09/2018 22:00 Not measured Full data
River Gauge Balranald Murrumbidgee 1.93 m 22/09/2018 21:45 1456 ML/Day 22/09/2018 21:45 Not measured Not measured 15.3°C 22/09/2018 21:45 99.3 μS/cm 22/09/2018 21:45 Not measured Full data
River Gauge Bandiana Kiewa 2.13 m 22/09/2018 21:45 2243 ML/Day 22/09/2018 21:45 Not measured Not measured 9.7°C 22/09/2018 21:45 21.0 μS/cm 22/09/2018 21:45 Not measured Full data
River Gauge Biggara Murray 0.63 m 22/09/2018 22:00 948 ML/Day 22/09/2018 22:00 Not measured Not measured 8.9°C 22/09/2018 22:00 34.0 μS/cm 22/09/2018 22:00 0.0 mm 22/09/2018 9:00 Full data
River Gauge Bringenbrong Bridge Murray 1.08 m 22/09/2018 22:00 1467 ML/Day 22/09/2018 22:00 Not measured Not measured Not measured Not measured Not measured Full data
River Gauge Burtundy Darling 0.63 m 22/09/2018 21:45 11 ML/Day 22/09/2018 21:45 Not measured Not measured 18.8°C 22/09/2018 21:45 769.0 μS/cm 22/09/2018 21:45 Not measured Full data
River Gauge Colemans Mitta 2.68 m 22/09/2018 22:15 8606 ML/Day 22/09/2018 22:15 Not measured Not measured 9.8°C 22/09/2018 21:45 42.3 μS/cm 22/09/2018 21:45 Not measured Full data
River Gauge Colignan Murray 2.12 m 22/09/2018 21:45 7778 ML/Day 22/09/2018 21:45 Not measured Not measured 16.5°C 22/09/2018 21:45 109.0 μS/cm 22/09/2018 21:45 Not measured Full data
River Gauge Corowa Murray 3.15 m 22/09/2018 22:00 15233 ML/Day 22/09/2018 22:00 Not measured Not measured 13.1°C 22/09/2018 22:00 41.9 μS/cm 22/09/2018 22:00 Not measured Full data
Storage Dartmouth Dam Mitta 477.93 m 22/09/2018 22:15 Not measured 3349 GL 22/09/2018 22:15 Not measured Not measured Not measured Not measured Full data
River Gauge Doctors Point Murray 3.03 m 22/09/2018 22:00 15555 ML/Day 22/09/2018 22:00 Not measured Not measured 12.1°C 22/09/2018 22:00 52.5 μS/cm 22/09/2018 22:00 Not measured Full data
River Gauge Echuca Wharf Murray 87.2 m 22/09/2018 20:45 Not measured Not measured Not measured Not measured Not measured Not measured Full data
River Gauge Edward Escape Wakool 0.22 m 22/09/2018 21:45 73 ML/Day 22/09/2018 21:45 Not measured Not measured 15.6°C 22/09/2018 21:45 66.1 μS/cm 22/09/2018 21:45 Not measured Full data
River Gauge Edward River Offtake Murray 2.39 m 22/09/2018 22:00 1552 ML/Day 22/09/2018 22:00 Not measured Not measured 14.9°C 22/09/2018 21:45 40.3 μS/cm 22/09/2018 21:45 Not measured Full data
Weirs Euston Weir Downstream Murray 43.42 m 22/09/2018 21:45 8078 ML/Day 22/09/2018 21:45 Not measured Not measured 15.3°C 22/09/2018 21:45 87.6 μS/cm 22/09/2018 21:45 Not measured Full data
Weirs Euston Weir Upstream Murray 47.57 m 22/09/2018 8:00 Not measured 36 GL 22/09/2018 7:45 Not measured Not measured Not measured 0.0 mm 20/09/2018 9:00 Full data
River Gauge Flow to South Australia Murray Not measured Not measured Not measured 5850.7 ML/d21/09/2018 7:45 Not measured Not measured Not measured Full data
River Gauge Frenchman Creek Murray 27.31 m 21/09/2018 7:45 Not measured Not measured 2854.0 ML/d21/09/2018 7:45 Not measured Not measured Not measured Full data
River Gauge Gulpa Creek Offtake Murray 2.48 m 22/09/2018 21:45 329 ML/Day 22/09/2018 21:45 Not measured Not measured Not measured Not measured Not measured Full data
River Gauge Hinnomunjie Mitta 1.02 m 22/09/2018 21:45 1340 ML/Day 22/09/2018 21:45 Not measured Not measured 8.3°C 22/09/2018 21:45 11.2 μS/cm 22/09/2018 21:45 0.0 mm 22/09/2018 9:00 Full data
Storage Hume Dam Murray 183.63 m 22/09/2018 22:15 Not measured 1590 GL 22/09/2018 22:15 13950.0 ML/d22/09/2018 8:00 Not measured Not measured 0.0 mm 22/09/2018 9:00 Full data
River Gauge Jingellic Murray 1.45 m 22/09/2018 21:45 2711 ML/Day 22/09/2018 21:45 Not measured Not measured 13.2°C 22/09/2018 21:45 41.5 μS/cm 22/09/2018 21:45 0.0 mm 22/09/2018 9:00 Full data
River Gauge Kerang Loddon 0.35 m 22/09/2018 21:45 140 ML/Day 22/09/2018 21:45 Not measured Not measured 15.0°C 22/09/2018 21:45 73.3 μS/cm 22/09/2018 21:45 Not measured Full data
River Gauge Lake Albert Murray 0.83 m 22/09/2018 5:45 Not measured 285 GL 22/09/2018 5:45 Not measured Not measured Not measured Not measured Full data
River Gauge Lake Alexandrina Murray 0.74 m 22/09/2018 5:45 Not measured 1604 GL 22/09/2018 5:45 Not measured Not measured 810.6 μS/cm 22/09/2018 20:45 Not measured Full data
Storage Lake Victoria Murray 24.07 m 22/09/2018 20:45 Not measured 351 GL 22/09/2018 20:45 Not measured 14.1°C 22/09/2018 20:45 180.1 μS/cm 22/09/2018 20:45 Not measured Full data
Weirs Lock 1 Downstream Murray 0.8 m 22/09/2018 20:45 Not measured Not measured 3685.4 ML/d21/09/2018 7:45 Not measured Not measured Not measured Full data
Weirs Lock 1 Upstream Murray 3.18 m 22/09/2018 20:45 Not measured Not measured Not measured 14.9°C 22/09/2018 20:45 279.0 μS/cm 22/09/2018 20:45 Not measured Full data
Weirs Lock 2 Downstream Murray 3.32 m 22/09/2018 20:45 Not measured Not measured Not measured Not measured Not measured Not measured Full data
Weirs Lock 2 Upstream Murray 6.59 m 22/09/2018 20:45 Not measured Not measured Not measured 15.5°C 22/09/2018 20:45 277.4 μS/cm 22/09/2018 20:45 Not measured Full data
Weirs Lock 3 Downstream Murray 6.71 m 22/09/2018 20:45 Not measured Not measured Not measured Not measured Not measured Not measured Full data
Weirs Lock 3 Upstream Murray 9.79 m 22/09/2018 20:45 Not measured Not measured Not measured Not measured Not measured Not measured Full data
Weirs Lock 4 Downstream Murray 10.26 m 22/09/2018 20:45 Not measured Not measured Not measured Not measured Not measured Not measured Full data
Weirs Lock 4 Upstream Murray 13.19 m 22/09/2018 20:45 Not measured Not measured Not measured Not measured Not measured Not measured Full data
Weirs Lock 5 Downstream Murray 13.3 m 22/09/2018 20:45 Not measured Not measured Not measured Not measured Not measured Not measured Full data
Weirs Lock 5 Upstream Murray 16.63 m 22/09/2018 20:45 Not measured Not measured Not measured 16.3°C 22/09/2018 20:45 196.0 μS/cm 22/09/2018 20:45 Not measured Full data
Weirs Lock 6 Downstream Murray 16.64 m 22/09/2018 20:45 Not measured Not measured Not measured Not measured Not measured Not measured Full data
Weirs Lock 6 Upstream Murray 19.44 m 22/09/2018 20:45 Not measured Not measured Not measured 14.9°C 22/09/2018 20:45 194.2 μS/cm 22/09/2018 20:45 Not measured Full data
Weirs Lock 7 Downstream Murray 20.21 m 22/09/2018 20:45 Not measured Not measured Not measured Not measured Not measured Not measured Full data
Weirs Lock 7 Upstream Murray 22.23 m 22/09/2018 20:45 Not measured Not measured Not measured 16.4°C 22/09/2018 20:45 144.5 μS/cm 22/09/2018 20:45 Not measured Full data
Weirs Lock 8 Upstream Murray 24.3 m 22/09/2018 21:00 Not measured Not measured Not measured 16.4°C 22/09/2018 21:00 148.2 μS/cm 22/09/2018 21:00 Not measured Full data
Weirs Lock 9 Downstream Murray 24.34 m 22/09/2018 20:45 Not measured Not measured Not measured Not measured Not measured Not measured Full data
Weirs Lock 9 Upstream Murray 27.34 m 22/09/2018 20:45 Not measured Not measured Not measured 16.0°C 22/09/2018 20:45 134.6 μS/cm 22/09/2018 20:45 Not measured Full data
River Gauge McCoy Bridge Goulburn 1.19 m 22/09/2018 21:45 472 ML/Day 22/09/2018 21:45 Not measured Not measured 15.0°C 22/09/2018 21:45 109.4 μS/cm 22/09/2018 21:45 Not measured Full data
Storage Menindee Lakes Darling Not measured Not measured 161 GL 21/09/2018 7:45 Not measured Not measured Not measured Not measured Full data
Weirs Mildura Weir downstream Murray 31.02 m 22/09/2018 21:45 Not measured Not measured Not measured 15.9°C 22/09/2018 21:45 169.7 μS/cm 22/09/2018 21:45 Not measured Full data
River Gauge Morgan Downstream Murray Not measured Not measured Not measured 3067.6 ML/d22/09/2018 20:45 Not measured 297.2 μS/cm 22/09/2018 18:45 Not measured Full data
River Gauge Mulwala Canal Murray Not measured Not measured Not measured 2294.5 ML/d21/09/2018 7:45 Not measured Not measured Not measured Full data
River Gauge Mundoo Barrage Murray 0.79 m 21/09/2018 7:45 Not measured Not measured Not measured Not measured Not measured Not measured Full data
River Gauge Murray Bridge Murray 0.75 m 22/09/2018 20:45 Not measured Not measured Not measured 14.1°C 22/09/2018 20:45 335.8 μS/cm 22/09/2018 20:45 Not measured Full data
River Gauge Peechelba Ovens 127.69 m 22/09/2018 21:45 2658 ML/Day 22/09/2018 21:45 Not measured Not measured 12.9°C 22/09/2018 21:45 27.1 μS/cm 22/09/2018 21:45 Not measured Full data
River Gauge Pinegrove Murray 1.28 m 22/09/2018 22:00 434 ML/Day 22/09/2018 22:00 Not measured Not measured 12.2°C 22/09/2018 22:00 70.1 μS/cm 22/09/2018 22:00 0.0 mm 22/09/2018 9:00 Full data
River Gauge Rochester Campaspe 3.33 m 22/09/2018 21:45 1446 ML/Day 22/09/2018 21:45 Not measured Not measured 9.4°C 22/09/2018 21:45 538.7 μS/cm 22/09/2018 21:45 0.0 mm 22/09/2018 9:00 Full data
River Gauge Rufus River Murray 20.38 m 21/09/2018 7:45 Not measured Not measured 1733.0 ML/d21/09/2018 7:45 Not measured 180.5 μS/cm 22/09/2018 18:45 Not measured Full data
Weirs Steven's Weir Downstream Wakool 2.27 m 22/09/2018 21:45 2405 ML/Day 22/09/2018 21:45 Not measured Not measured 14.8°C 22/09/2018 21:45 37.6 μS/cm 22/09/2018 21:45 0.0 mm 2/05/2018 9:00 Full data
Weirs Steven's Weir Upstream Wakool 4.53 m 22/09/2018 22:00 Not measured Not measured Not measured Not measured Not measured Not measured Full data
River Gauge Stoney Crossing Murray 1.6 m 22/09/2018 21:45 903 ML/Day 22/09/2018 21:45 Not measured 629.9 ML/d22/09/2018 7:45 16.0°C 22/09/2018 21:45 118.8 μS/cm 22/09/2018 21:45 Not measured Full data
River Gauge Swan Hill Murray 1.2 m 22/09/2018 21:45 5970 ML/Day 22/09/2018 21:45 Not measured Not measured 15.6°C 22/09/2018 21:45 59.1 μS/cm 22/09/2018 21:45 Not measured Full data
River Gauge Tallandoon Mitta 3.29 m 22/09/2018 21:45 9055 ML/Day 22/09/2018 21:45 Not measured Not measured 10.7°C 22/09/2018 21:45 36.9 μS/cm 22/09/2018 21:45 Not measured Full data
River Gauge Tauwitchere Barrage Murray 0.76 m 22/09/2018 20:45 Not measured Not measured Not measured Not measured Not measured Not measured Full data
River Gauge Tocumwal Murray 2.66 m 22/09/2018 21:45 12417 ML/Day 22/09/2018 21:45 Not measured Not measured 14.1°C 22/09/2018 21:45 39.9 μS/cm 22/09/2018 21:45 Not measured Full data
River Gauge Torrumbarry Headworks Murray 85.18 m 22/09/2018 21:45 Not measured Not measured 2603.5 ML/d22/09/2018 21:45 Not measured Not measured Not measured Full data
Weirs Torrumbarry Weir Downstream Murray 2.39 m 22/09/2018 21:45 6954 ML/Day 22/09/2018 21:45 Not measured Not measured 14.2°C 22/09/2018 21:45 91.1 μS/cm 22/09/2018 21:45 Not measured Full data
Weirs Torrumbarry Weir Upstream Murray 86.05 m 22/09/2018 21:30 Not measured 37 GL 22/09/2018 8:45 Not measured 13.8°C 22/09/2018 8:45 89.6 μS/cm 22/09/2018 17:45 0.0 mm 22/09/2018 9:00 Full data
River Gauge Wakool Canal Wakool 0.44 m 22/09/2018 21:45 Not measured Not measured 299.4 ML/d22/09/2018 8:45 Not measured Not measured Not measured Full data
River Gauge Wakool Junction Murray 2.96 m 22/09/2018 21:45 7537 ML/Day 22/09/2018 21:45 Not measured Not measured 15.7°C 22/09/2018 21:45 72.6 μS/cm 22/09/2018 21:45 Not measured Full data
River Gauge Weir 32 Upstream Darling 1.34 m 22/09/2018 21:45 207 ML/Day 22/09/2018 21:45 Not measured Not measured 15.9°C 22/09/2018 21:45 832.8 μS/cm 22/09/2018 21:45 Not measured Full data
Weirs Wentworth Weir Murray 27.65 m 22/09/2018 21:45 Not measured Not measured 7215.0 ML/d22/09/2018 8:45 Not measured 143.0 μS/cm 21/09/2018 7:45 0.0 mm 20/09/2018 9:00 Full data
River Gauge Wilcania Darling -0.17 m 22/09/2018 21:45 1 ML/Day 22/09/2018 21:45 Not measured Not measured 12.0°C 22/09/2018 22:00 0.0 μS/cm 22/09/2018 21:45 Not measured Full data
River Gauge Yarrawonga Main Channel Murray 123.75 m 22/09/2018 21:45 Not measured Not measured 1284.1 ML/d22/09/2018 21:45 Not measured Not measured Not measured Full data
Weirs Yarrawonga Weir Downstream Murray 2.06 m 22/09/2018 22:00 13200 ML/Day 22/09/2018 22:00 Not measured Not measured 13.9°C 22/09/2018 22:00 52.1 μS/cm 22/09/2018 22:00 Not measured Full data
Weirs Yarrawonga Weir Upstream Murray 124.72 m 22/09/2018 21:45 Not measured Not measured Not measured Not measured Not measured 0.0 mm 22/09/2018 9:00 Full data